sensor_id;sensor_type;location;lat;lon;timestamp;P1;durP1;ratioP1;P2;durP2;ratioP2
44508;SDS011;30214;52.246;14.408;2022-11-15T00:00:42;159.40;;;37.20;;
44508;SDS011;30214;52.246;14.408;2022-11-15T00:03:28;218.15;;;38.72;;
44508;SDS011;30214;52.246;14.408;2022-11-15T00:06:13;118.00;;;33.92;;
44508;SDS011;30214;52.246;14.408;2022-11-15T00:08:59;167.82;;;38.25;;
44508;SDS011;30214;52.246;14.408;2022-11-15T00:11:46;197.10;;;39.05;;
44508;SDS011;30214;52.246;14.408;2022-11-15T00:14:32;195.68;;;37.03;;
44508;SDS011;30214;52.246;14.408;2022-11-15T00:17:19;205.85;;;38.08;;
44508;SDS011;30214;52.246;14.408;2022-11-15T00:20:05;297.83;;;44.25;;
44508;SDS011;30214;52.246;14.408;2022-11-15T00:22:52;197.77;;;37.65;;
44508;SDS011;30214;52.246;14.408;2022-11-15T00:25:38;115.65;;;35.35;;
44508;SDS011;30214;52.246;14.408;2022-11-15T00:28:25;215.13;;;38.55;;
44508;SDS011;30214;52.246;14.408;2022-11-15T00:31:12;181.07;;;36.80;;
44508;SDS011;30214;52.246;14.408;2022-11-15T00:33:59;254.18;;;42.25;;
44508;SDS011;30214;52.246;14.408;2022-11-15T00:36:45;117.65;;;35.60;;
44508;SDS011;30214;52.246;14.408;2022-11-15T00:39:31;208.98;;;40.55;;
44508;SDS011;30214;52.246;14.408;2022-11-15T00:42:16;161.45;;;37.75;;
44508;SDS011;30214;52.246;14.408;2022-11-15T00:45:03;123.82;;;35.60;;
44508;SDS011;30214;52.246;14.408;2022-11-15T00:47:50;105.97;;;36.85;;
44508;SDS011;30214;52.246;14.408;2022-11-15T00:50:36;110.78;;;33.70;;
44508;SDS011;30214;52.246;14.408;2022-11-15T00:53:22;140.40;;;35.78;;
44508;SDS011;30214;52.246;14.408;2022-11-15T00:56:07;94.82;;;34.17;;
44508;SDS011;30214;52.246;14.408;2022-11-15T00:58:52;238.90;;;40.20;;
44508;SDS011;30214;52.246;14.408;2022-11-15T01:01:39;105.53;;;32.33;;
44508;SDS011;30214;52.246;14.408;2022-11-15T01:04:25;145.02;;;34.20;;
44508;SDS011;30214;52.246;14.408;2022-11-15T01:07:10;222.07;;;38.88;;
44508;SDS011;30214;52.246;14.408;2022-11-15T01:09:57;171.63;;;36.15;;
44508;SDS011;30214;52.246;14.408;2022-11-15T01:12:42;174.63;;;36.83;;
44508;SDS011;30214;52.246;14.408;2022-11-15T01:15:28;261.92;;;37.75;;
44508;SDS011;30214;52.246;14.408;2022-11-15T01:18:14;201.43;;;33.95;;
44508;SDS011;30214;52.246;14.408;2022-11-15T01:21:04;205.80;;;34.47;;
44508;SDS011;30214;52.246;14.408;2022-11-15T01:23:52;428.70;;;42.20;;
44508;SDS011;30214;52.246;14.408;2022-11-15T01:26:39;245.20;;;37.38;;
44508;SDS011;30214;52.246;14.408;2022-11-15T01:29:24;236.35;;;34.70;;
44508;SDS011;30214;52.246;14.408;2022-11-15T01:32:10;241.05;;;37.83;;
44508;SDS011;30214;52.246;14.408;2022-11-15T01:34:57;158.80;;;35.80;;
44508;SDS011;30214;52.246;14.408;2022-11-15T01:37:46;229.80;;;39.45;;
44508;SDS011;30214;52.246;14.408;2022-11-15T01:40:31;211.73;;;37.22;;
44508;SDS011;30214;52.246;14.408;2022-11-15T01:43:18;214.90;;;36.85;;
44508;SDS011;30214;52.246;14.408;2022-11-15T01:46:08;171.27;;;35.10;;
44508;SDS011;30214;52.246;14.408;2022-11-15T01:49:10;269.95;;;38.35;;
44508;SDS011;30214;52.246;14.408;2022-11-15T01:52:01;330.83;;;42.00;;
44508;SDS011;30214;52.246;14.408;2022-11-15T01:54:50;282.58;;;39.45;;
44508;SDS011;30214;52.246;14.408;2022-11-15T01:57:41;247.82;;;38.97;;
44508;SDS011;30214;52.246;14.408;2022-11-15T02:00:30;240.77;;;35.60;;
44508;SDS011;30214;52.246;14.408;2022-11-15T02:03:16;197.40;;;34.05;;
44508;SDS011;30214;52.246;14.408;2022-11-15T02:06:03;267.08;;;36.33;;
44508;SDS011;30214;52.246;14.408;2022-11-15T02:08:51;308.13;;;39.03;;
44508;SDS011;30214;52.246;14.408;2022-11-15T02:11:37;267.42;;;35.08;;
44508;SDS011;30214;52.246;14.408;2022-11-15T02:14:22;231.10;;;34.13;;
44508;SDS011;30214;52.246;14.408;2022-11-15T02:17:15;299.65;;;36.05;;
44508;SDS011;30214;52.246;14.408;2022-11-15T02:30:30;389.88;;;38.90;;
44508;SDS011;30214;52.246;14.408;2022-11-15T02:33:27;269.40;;;33.22;;
44508;SDS011;30214;52.246;14.408;2022-11-15T02:36:25;365.38;;;38.17;;
44508;SDS011;30214;52.246;14.408;2022-11-15T02:39:23;320.58;;;39.40;;
44508;SDS011;30214;52.246;14.408;2022-11-15T02:42:15;365.92;;;39.95;;
44508;SDS011;30214;52.246;14.408;2022-11-15T02:45:24;244.23;;;34.40;;
44508;SDS011;30214;52.246;14.408;2022-11-15T02:48:18;418.60;;;39.70;;
44508;SDS011;30214;52.246;14.408;2022-11-15T02:51:07;250.18;;;34.63;;
44508;SDS011;30214;52.246;14.408;2022-11-15T02:53:53;347.88;;;38.95;;
44508;SDS011;30214;52.246;14.408;2022-11-15T02:56:38;190.77;;;32.25;;
44508;SDS011;30214;52.246;14.408;2022-11-15T03:03:04;344.40;;;38.40;;
44508;SDS011;30214;52.246;14.408;2022-11-15T03:06:14;270.88;;;35.25;;
44508;SDS011;30214;52.246;14.408;2022-11-15T03:09:09;254.45;;;36.08;;
44508;SDS011;30214;52.246;14.408;2022-11-15T03:12:02;194.02;;;31.98;;
44508;SDS011;30214;52.246;14.408;2022-11-15T03:14:55;289.93;;;36.07;;
44508;SDS011;30214;52.246;14.408;2022-11-15T03:17:47;334.55;;;38.13;;
44508;SDS011;30214;52.246;14.408;2022-11-15T03:20:41;209.10;;;32.15;;
44508;SDS011;30214;52.246;14.408;2022-11-15T03:23:28;322.80;;;37.28;;
44508;SDS011;30214;52.246;14.408;2022-11-15T03:26:16;336.80;;;37.83;;
44508;SDS011;30214;52.246;14.408;2022-11-15T03:29:06;180.45;;;31.20;;
44508;SDS011;30214;52.246;14.408;2022-11-15T03:31:59;284.42;;;33.80;;
44508;SDS011;30214;52.246;14.408;2022-11-15T03:34:51;311.35;;;37.03;;
44508;SDS011;30214;52.246;14.408;2022-11-15T03:37:44;243.60;;;34.22;;
44508;SDS011;30214;52.246;14.408;2022-11-15T03:40:38;183.18;;;31.45;;
44508;SDS011;30214;52.246;14.408;2022-11-15T03:43:28;215.82;;;30.77;;
44508;SDS011;30214;52.246;14.408;2022-11-15T03:46:23;302.08;;;34.85;;
44508;SDS011;30214;52.246;14.408;2022-11-15T03:49:14;264.98;;;32.83;;
44508;SDS011;30214;52.246;14.408;2022-11-15T03:52:05;211.50;;;31.13;;
44508;SDS011;30214;52.246;14.408;2022-11-15T03:54:52;276.90;;;32.25;;
44508;SDS011;30214;52.246;14.408;2022-11-15T03:57:41;208.65;;;30.10;;
44508;SDS011;30214;52.246;14.408;2022-11-15T04:00:27;181.75;;;29.90;;
44508;SDS011;30214;52.246;14.408;2022-11-15T04:03:13;239.90;;;31.63;;
44508;SDS011;30214;52.246;14.408;2022-11-15T04:05:58;205.85;;;29.88;;
44508;SDS011;30214;52.246;14.408;2022-11-15T04:08:44;169.05;;;29.25;;
44508;SDS011;30214;52.246;14.408;2022-11-15T04:11:31;183.20;;;29.08;;
44508;SDS011;30214;52.246;14.408;2022-11-15T04:14:16;151.52;;;29.40;;
44508;SDS011;30214;52.246;14.408;2022-11-15T04:17:01;138.35;;;28.45;;
44508;SDS011;30214;52.246;14.408;2022-11-15T04:19:47;169.13;;;29.15;;
44508;SDS011;30214;52.246;14.408;2022-11-15T04:22:51;237.77;;;32.95;;
44508;SDS011;30214;52.246;14.408;2022-11-15T04:25:56;151.10;;;27.45;;
44508;SDS011;30214;52.246;14.408;2022-11-15T04:28:47;125.97;;;28.30;;
44508;SDS011;30214;52.246;14.408;2022-11-15T04:31:50;111.22;;;27.00;;
44508;SDS011;30214;52.246;14.408;2022-11-15T04:34:35;132.70;;;28.58;;
44508;SDS011;30214;52.246;14.408;2022-11-15T04:37:22;157.27;;;27.88;;
44508;SDS011;30214;52.246;14.408;2022-11-15T04:40:07;105.00;;;26.17;;
44508;SDS011;30214;52.246;14.408;2022-11-15T04:42:54;207.85;;;31.52;;
44508;SDS011;30214;52.246;14.408;2022-11-15T04:45:42;133.50;;;27.20;;
44508;SDS011;30214;52.246;14.408;2022-11-15T04:48:28;149.93;;;30.48;;
44508;SDS011;30214;52.246;14.408;2022-11-15T04:51:13;222.85;;;31.88;;
44508;SDS011;30214;52.246;14.408;2022-11-15T04:53:59;142.10;;;29.08;;
44508;SDS011;30214;52.246;14.408;2022-11-15T04:56:45;165.10;;;30.00;;
44508;SDS011;30214;52.246;14.408;2022-11-15T04:59:30;202.30;;;30.95;;
44508;SDS011;30214;52.246;14.408;2022-11-15T05:02:17;262.90;;;32.60;;
44508;SDS011;30214;52.246;14.408;2022-11-15T05:05:03;266.23;;;31.55;;
44508;SDS011;30214;52.246;14.408;2022-11-15T05:07:49;190.75;;;27.58;;
44508;SDS011;30214;52.246;14.408;2022-11-15T05:10:35;174.60;;;27.70;;
44508;SDS011;30214;52.246;14.408;2022-11-15T05:13:21;216.88;;;29.42;;
44508;SDS011;30214;52.246;14.408;2022-11-15T05:16:07;175.85;;;29.17;;
44508;SDS011;30214;52.246;14.408;2022-11-15T05:18:53;149.30;;;27.60;;
44508;SDS011;30214;52.246;14.408;2022-11-15T05:21:40;148.55;;;31.33;;
44508;SDS011;30214;52.246;14.408;2022-11-15T05:24:25;151.73;;;30.70;;
44508;SDS011;30214;52.246;14.408;2022-11-15T05:27:11;167.68;;;31.45;;
44508;SDS011;30214;52.246;14.408;2022-11-15T05:29:56;123.90;;;28.73;;
44508;SDS011;30214;52.246;14.408;2022-11-15T05:32:43;158.20;;;29.05;;
44508;SDS011;30214;52.246;14.408;2022-11-15T05:35:31;156.80;;;31.08;;
44508;SDS011;30214;52.246;14.408;2022-11-15T05:38:22;234.77;;;34.63;;
44508;SDS011;30214;52.246;14.408;2022-11-15T05:41:08;187.10;;;30.38;;
44508;SDS011;30214;52.246;14.408;2022-11-15T05:43:55;183.60;;;29.70;;
44508;SDS011;30214;52.246;14.408;2022-11-15T05:46:42;235.45;;;32.25;;
44508;SDS011;30214;52.246;14.408;2022-11-15T05:49:29;246.10;;;32.10;;
44508;SDS011;30214;52.246;14.408;2022-11-15T05:52:21;197.68;;;31.48;;
44508;SDS011;30214;52.246;14.408;2022-11-15T05:55:10;218.07;;;33.72;;
44508;SDS011;30214;52.246;14.408;2022-11-15T05:57:57;374.23;;;37.35;;
44508;SDS011;30214;52.246;14.408;2022-11-15T06:00:43;220.23;;;31.38;;
44508;SDS011;30214;52.246;14.408;2022-11-15T06:03:30;159.82;;;29.63;;
44508;SDS011;30214;52.246;14.408;2022-11-15T06:06:16;228.48;;;32.42;;
44508;SDS011;30214;52.246;14.408;2022-11-15T06:09:03;237.80;;;33.55;;
44508;SDS011;30214;52.246;14.408;2022-11-15T06:11:49;125.75;;;28.17;;
44508;SDS011;30214;52.246;14.408;2022-11-15T06:14:34;236.38;;;32.63;;
44508;SDS011;30214;52.246;14.408;2022-11-15T06:17:20;132.02;;;28.75;;
44508;SDS011;30214;52.246;14.408;2022-11-15T06:20:06;99.93;;;27.27;;
44508;SDS011;30214;52.246;14.408;2022-11-15T06:22:55;93.78;;;27.92;;
44508;SDS011;30214;52.246;14.408;2022-11-15T06:25:43;73.25;;;28.55;;
44508;SDS011;30214;52.246;14.408;2022-11-15T06:28:29;72.78;;;28.73;;
44508;SDS011;30214;52.246;14.408;2022-11-15T06:31:15;101.93;;;28.98;;
44508;SDS011;30214;52.246;14.408;2022-11-15T06:34:01;91.28;;;28.48;;
44508;SDS011;30214;52.246;14.408;2022-11-15T06:36:46;76.65;;;28.13;;
44508;SDS011;30214;52.246;14.408;2022-11-15T06:39:32;85.18;;;27.45;;
44508;SDS011;30214;52.246;14.408;2022-11-15T06:42:19;69.50;;;27.95;;
44508;SDS011;30214;52.246;14.408;2022-11-15T06:45:05;67.85;;;27.42;;
44508;SDS011;30214;52.246;14.408;2022-11-15T06:47:52;48.60;;;26.05;;
44508;SDS011;30214;52.246;14.408;2022-11-15T06:50:39;73.88;;;26.15;;
44508;SDS011;30214;52.246;14.408;2022-11-15T06:53:25;52.42;;;25.80;;
44508;SDS011;30214;52.246;14.408;2022-11-15T06:56:13;88.40;;;27.02;;
44508;SDS011;30214;52.246;14.408;2022-11-15T06:59:00;69.15;;;26.52;;
44508;SDS011;30214;52.246;14.408;2022-11-15T07:01:46;57.28;;;25.90;;
44508;SDS011;30214;52.246;14.408;2022-11-15T07:04:32;60.70;;;26.52;;
44508;SDS011;30214;52.246;14.408;2022-11-15T07:07:19;82.50;;;27.75;;
44508;SDS011;30214;52.246;14.408;2022-11-15T07:10:08;53.85;;;25.35;;
44508;SDS011;30214;52.246;14.408;2022-11-15T07:12:54;44.40;;;26.13;;
44508;SDS011;30214;52.246;14.408;2022-11-15T07:15:42;55.58;;;29.02;;
44508;SDS011;30214;52.246;14.408;2022-11-15T07:18:28;59.42;;;27.70;;
44508;SDS011;30214;52.246;14.408;2022-11-15T07:21:14;51.92;;;28.00;;
44508;SDS011;30214;52.246;14.408;2022-11-15T07:23:59;40.13;;;26.02;;
44508;SDS011;30214;52.246;14.408;2022-11-15T07:26:45;42.97;;;26.50;;
44508;SDS011;30214;52.246;14.408;2022-11-15T07:29:31;40.67;;;25.23;;
44508;SDS011;30214;52.246;14.408;2022-11-15T07:32:18;44.40;;;26.85;;
44508;SDS011;30214;52.246;14.408;2022-11-15T07:35:04;45.50;;;28.10;;
44508;SDS011;30214;52.246;14.408;2022-11-15T07:37:54;41.53;;;27.00;;
44508;SDS011;30214;52.246;14.408;2022-11-15T07:40:41;46.88;;;27.88;;
44508;SDS011;30214;52.246;14.408;2022-11-15T07:43:26;45.33;;;28.27;;
44508;SDS011;30214;52.246;14.408;2022-11-15T07:46:13;43.80;;;28.55;;
44508;SDS011;30214;52.246;14.408;2022-11-15T07:48:59;49.72;;;29.75;;
44508;SDS011;30214;52.246;14.408;2022-11-15T07:51:45;60.72;;;32.88;;
44508;SDS011;30214;52.246;14.408;2022-11-15T07:54:30;102.80;;;41.80;;
44508;SDS011;30214;52.246;14.408;2022-11-15T07:57:16;55.15;;;31.13;;
44508;SDS011;30214;52.246;14.408;2022-11-15T08:00:02;49.53;;;30.23;;
44508;SDS011;30214;52.246;14.408;2022-11-15T08:02:49;47.65;;;29.75;;
44508;SDS011;30214;52.246;14.408;2022-11-15T08:05:37;47.22;;;29.90;;
44508;SDS011;30214;52.246;14.408;2022-11-15T08:08:24;46.97;;;29.50;;
44508;SDS011;30214;52.246;14.408;2022-11-15T08:11:12;44.55;;;29.30;;
44508;SDS011;30214;52.246;14.408;2022-11-15T08:13:58;49.15;;;30.73;;
44508;SDS011;30214;52.246;14.408;2022-11-15T08:16:44;56.40;;;32.13;;
44508;SDS011;30214;52.246;14.408;2022-11-15T08:19:29;48.90;;;30.40;;
44508;SDS011;30214;52.246;14.408;2022-11-15T08:22:16;47.42;;;29.75;;
44508;SDS011;30214;52.246;14.408;2022-11-15T08:25:03;42.33;;;27.13;;
44508;SDS011;30214;52.246;14.408;2022-11-15T08:27:51;49.67;;;30.02;;
44508;SDS011;30214;52.246;14.408;2022-11-15T08:30:39;52.08;;;30.02;;
44508;SDS011;30214;52.246;14.408;2022-11-15T08:33:26;48.90;;;29.88;;
44508;SDS011;30214;52.246;14.408;2022-11-15T08:36:13;48.13;;;30.65;;
44508;SDS011;30214;52.246;14.408;2022-11-15T08:39:02;49.63;;;32.47;;
44508;SDS011;30214;52.246;14.408;2022-11-15T08:41:47;52.38;;;31.60;;
44508;SDS011;30214;52.246;14.408;2022-11-15T08:44:33;46.85;;;30.67;;
44508;SDS011;30214;52.246;14.408;2022-11-15T08:47:18;50.83;;;31.65;;
44508;SDS011;30214;52.246;14.408;2022-11-15T08:50:04;54.45;;;35.38;;
44508;SDS011;30214;52.246;14.408;2022-11-15T08:52:51;54.17;;;35.47;;
44508;SDS011;30214;52.246;14.408;2022-11-15T08:55:39;46.00;;;31.60;;
44508;SDS011;30214;52.246;14.408;2022-11-15T08:58:25;46.53;;;30.05;;
44508;SDS011;30214;52.246;14.408;2022-11-15T09:01:14;51.08;;;31.42;;
44508;SDS011;30214;52.246;14.408;2022-11-15T09:04:01;50.30;;;31.55;;
44508;SDS011;30214;52.246;14.408;2022-11-15T09:06:48;46.00;;;30.63;;
44508;SDS011;30214;52.246;14.408;2022-11-15T09:09:34;45.33;;;30.27;;
44508;SDS011;30214;52.246;14.408;2022-11-15T09:12:20;48.67;;;31.77;;
44508;SDS011;30214;52.246;14.408;2022-11-15T09:15:06;45.80;;;31.20;;
44508;SDS011;30214;52.246;14.408;2022-11-15T09:17:53;44.47;;;30.48;;
44508;SDS011;30214;52.246;14.408;2022-11-15T09:20:42;45.47;;;29.63;;
44508;SDS011;30214;52.246;14.408;2022-11-15T09:23:28;47.67;;;29.80;;
44508;SDS011;30214;52.246;14.408;2022-11-15T09:26:13;44.83;;;29.33;;
44508;SDS011;30214;52.246;14.408;2022-11-15T09:29:00;41.42;;;28.75;;
44508;SDS011;30214;52.246;14.408;2022-11-15T09:31:46;42.63;;;29.35;;
44508;SDS011;30214;52.246;14.408;2022-11-15T09:34:31;44.15;;;29.05;;
44508;SDS011;30214;52.246;14.408;2022-11-15T09:37:16;41.88;;;29.23;;
44508;SDS011;30214;52.246;14.408;2022-11-15T09:40:02;43.88;;;29.65;;
44508;SDS011;30214;52.246;14.408;2022-11-15T09:42:52;45.40;;;30.48;;
44508;SDS011;30214;52.246;14.408;2022-11-15T09:45:53;43.28;;;29.38;;
44508;SDS011;30214;52.246;14.408;2022-11-15T09:49:06;38.30;;;26.88;;
44508;SDS011;30214;52.246;14.408;2022-11-15T09:51:57;40.45;;;28.48;;
44508;SDS011;30214;52.246;14.408;2022-11-15T09:54:26;42.67;;;27.83;;
44508;SDS011;30214;52.246;14.408;2022-11-15T09:56:56;41.65;;;27.08;;
44508;SDS011;30214;52.246;14.408;2022-11-15T09:59:36;41.95;;;28.17;;
44508;SDS011;30214;52.246;14.408;2022-11-15T10:02:43;41.22;;;28.55;;
44508;SDS011;30214;52.246;14.408;2022-11-15T10:05:25;41.92;;;27.52;;
44508;SDS011;30214;52.246;14.408;2022-11-15T10:07:55;38.38;;;26.75;;
44508;SDS011;30214;52.246;14.408;2022-11-15T10:10:30;40.58;;;26.20;;
44508;SDS011;30214;52.246;14.408;2022-11-15T10:13:02;35.83;;;26.60;;
44508;SDS011;30214;52.246;14.408;2022-11-15T10:15:30;37.67;;;27.27;;
44508;SDS011;30214;52.246;14.408;2022-11-15T10:18:15;37.42;;;26.52;;
44508;SDS011;30214;52.246;14.408;2022-11-15T10:20:48;36.42;;;26.92;;
44508;SDS011;30214;52.246;14.408;2022-11-15T10:23:18;40.17;;;27.70;;
44508;SDS011;30214;52.246;14.408;2022-11-15T10:25:48;38.78;;;27.80;;
44508;SDS011;30214;52.246;14.408;2022-11-15T10:28:21;37.55;;;26.30;;
44508;SDS011;30214;52.246;14.408;2022-11-15T10:30:52;39.95;;;25.83;;
44508;SDS011;30214;52.246;14.408;2022-11-15T10:33:32;36.28;;;25.45;;
44508;SDS011;30214;52.246;14.408;2022-11-15T10:36:14;38.67;;;27.05;;
44508;SDS011;30214;52.246;14.408;2022-11-15T10:38:54;39.50;;;28.80;;
44508;SDS011;30214;52.246;14.408;2022-11-15T10:41:29;37.10;;;26.70;;
44508;SDS011;30214;52.246;14.408;2022-11-15T10:44:09;36.92;;;26.15;;
44508;SDS011;30214;52.246;14.408;2022-11-15T10:46:47;36.55;;;26.58;;
44508;SDS011;30214;52.246;14.408;2022-11-15T10:49:32;34.05;;;24.58;;
44508;SDS011;30214;52.246;14.408;2022-11-15T10:52:01;33.67;;;25.08;;
44508;SDS011;30214;52.246;14.408;2022-11-15T10:54:39;37.90;;;23.83;;
44508;SDS011;30214;52.246;14.408;2022-11-15T10:57:10;32.55;;;23.42;;
44508;SDS011;30214;52.246;14.408;2022-11-15T10:59:42;33.35;;;22.77;;
44508;SDS011;30214;52.246;14.408;2022-11-15T11:02:23;35.42;;;22.70;;
44508;SDS011;30214;52.246;14.408;2022-11-15T11:04:57;30.88;;;22.13;;
44508;SDS011;30214;52.246;14.408;2022-11-15T11:07:26;36.65;;;23.23;;
44508;SDS011;30214;52.246;14.408;2022-11-15T11:09:59;29.52;;;20.30;;
44508;SDS011;30214;52.246;14.408;2022-11-15T11:12:31;33.85;;;23.05;;
44508;SDS011;30214;52.246;14.408;2022-11-15T11:15:01;28.10;;;20.45;;
44508;SDS011;30214;52.246;14.408;2022-11-15T11:17:42;29.98;;;21.55;;
44508;SDS011;30214;52.246;14.408;2022-11-15T11:20:23;29.33;;;20.40;;
44508;SDS011;30214;52.246;14.408;2022-11-15T11:23:01;35.95;;;23.45;;
44508;SDS011;30214;52.246;14.408;2022-11-15T11:25:46;31.55;;;22.13;;
44508;SDS011;30214;52.246;14.408;2022-11-15T11:28:26;31.55;;;22.58;;
44508;SDS011;30214;52.246;14.408;2022-11-15T11:31:12;34.75;;;22.33;;
44508;SDS011;30214;52.246;14.408;2022-11-15T11:34:00;30.13;;;20.33;;
44508;SDS011;30214;52.246;14.408;2022-11-15T11:36:42;26.77;;;19.83;;
44508;SDS011;30214;52.246;14.408;2022-11-15T11:39:19;27.23;;;20.33;;
44508;SDS011;30214;52.246;14.408;2022-11-15T11:41:56;28.08;;;20.02;;
44508;SDS011;30214;52.246;14.408;2022-11-15T11:44:32;26.55;;;18.70;;
44508;SDS011;30214;52.246;14.408;2022-11-15T11:47:07;25.33;;;18.20;;
44508;SDS011;30214;52.246;14.408;2022-11-15T11:49:39;27.10;;;19.35;;
44508;SDS011;30214;52.246;14.408;2022-11-15T11:52:14;22.98;;;17.10;;
44508;SDS011;30214;52.246;14.408;2022-11-15T11:54:49;25.45;;;16.83;;
44508;SDS011;30214;52.246;14.408;2022-11-15T11:57:29;24.30;;;17.67;;
44508;SDS011;30214;52.246;14.408;2022-11-15T12:00:09;26.08;;;17.15;;
44508;SDS011;30214;52.246;14.408;2022-11-15T12:02:44;23.50;;;16.60;;
44508;SDS011;30214;52.246;14.408;2022-11-15T12:05:23;21.50;;;16.27;;
44508;SDS011;30214;52.246;14.408;2022-11-15T12:10:30;19.55;;;15.00;;
44508;SDS011;30214;52.246;14.408;2022-11-15T12:13:00;22.55;;;15.10;;
44508;SDS011;30214;52.246;14.408;2022-11-15T12:15:32;21.50;;;14.90;;
44508;SDS011;30214;52.246;14.408;2022-11-15T12:18:07;21.52;;;14.55;;
44508;SDS011;30214;52.246;14.408;2022-11-15T12:20:39;25.00;;;15.32;;
44508;SDS011;30214;52.246;14.408;2022-11-15T12:23:15;18.90;;;13.77;;
44508;SDS011;30214;52.246;14.408;2022-11-15T12:25:47;19.70;;;14.43;;
44508;SDS011;30214;52.246;14.408;2022-11-15T12:28:19;19.40;;;14.23;;
44508;SDS011;30214;52.246;14.408;2022-11-15T12:31:00;20.48;;;14.10;;
44508;SDS011;30214;52.246;14.408;2022-11-15T12:33:32;19.35;;;14.57;;
44508;SDS011;30214;52.246;14.408;2022-11-15T12:36:03;18.80;;;14.43;;
44508;SDS011;30214;52.246;14.408;2022-11-15T12:41:28;18.70;;;13.95;;
44508;SDS011;30214;52.246;14.408;2022-11-15T12:43:57;19.05;;;14.10;;
44508;SDS011;30214;52.246;14.408;2022-11-15T12:49:48;19.77;;;14.30;;
44508;SDS011;30214;52.246;14.408;2022-11-15T12:52:17;20.17;;;14.40;;
44508;SDS011;30214;52.246;14.408;2022-11-15T12:54:57;19.42;;;13.50;;
44508;SDS011;30214;52.246;14.408;2022-11-15T12:57:38;17.67;;;12.80;;
44508;SDS011;30214;52.246;14.408;2022-11-15T13:06:00;21.80;;;14.88;;
44508;SDS011;30214;52.246;14.408;2022-11-15T13:08:35;24.00;;;14.50;;
44508;SDS011;30214;52.246;14.408;2022-11-15T13:17:24;23.35;;;15.48;;
44508;SDS011;30214;52.246;14.408;2022-11-15T13:20:00;20.55;;;14.52;;
44508;SDS011;30214;52.246;14.408;2022-11-15T13:25:18;19.80;;;14.63;;
44508;SDS011;30214;52.246;14.408;2022-11-15T13:28:11;22.65;;;14.93;;
44508;SDS011;30214;52.246;14.408;2022-11-15T13:30:49;21.30;;;15.50;;
44508;SDS011;30214;52.246;14.408;2022-11-15T13:33:20;21.92;;;15.20;;
44508;SDS011;30214;52.246;14.408;2022-11-15T13:35:50;22.80;;;16.30;;
44508;SDS011;30214;52.246;14.408;2022-11-15T13:38:25;20.75;;;15.80;;
44508;SDS011;30214;52.246;14.408;2022-11-15T13:40:56;22.40;;;15.70;;
44508;SDS011;30214;52.246;14.408;2022-11-15T13:43:28;19.98;;;15.75;;
44508;SDS011;30214;52.246;14.408;2022-11-15T13:46:06;22.10;;;15.07;;
44508;SDS011;30214;52.246;14.408;2022-11-15T13:48:38;23.50;;;15.55;;
44508;SDS011;30214;52.246;14.408;2022-11-15T13:51:07;25.38;;;16.73;;
44508;SDS011;30214;52.246;14.408;2022-11-15T13:53:44;28.63;;;17.52;;
44508;SDS011;30214;52.246;14.408;2022-11-15T13:56:15;25.60;;;17.52;;
44508;SDS011;30214;52.246;14.408;2022-11-15T13:58:47;23.88;;;16.83;;
44508;SDS011;30214;52.246;14.408;2022-11-15T14:01:16;28.15;;;17.63;;
44508;SDS011;30214;52.246;14.408;2022-11-15T14:03:50;31.48;;;19.77;;
44508;SDS011;30214;52.246;14.408;2022-11-15T14:06:23;28.42;;;20.05;;
44508;SDS011;30214;52.246;14.408;2022-11-15T14:11:56;28.23;;;19.50;;
44508;SDS011;30214;52.246;14.408;2022-11-15T14:14:25;34.60;;;21.38;;
44508;SDS011;30214;52.246;14.408;2022-11-15T14:16:55;31.65;;;20.73;;
44508;SDS011;30214;52.246;14.408;2022-11-15T14:19:34;32.40;;;21.80;;
44508;SDS011;30214;52.246;14.408;2022-11-15T14:22:08;35.35;;;22.85;;
44508;SDS011;30214;52.246;14.408;2022-11-15T14:25:04;34.20;;;22.38;;
44508;SDS011;30214;52.246;14.408;2022-11-15T14:27:43;30.38;;;20.85;;
44508;SDS011;30214;52.246;14.408;2022-11-15T14:30:23;32.85;;;20.05;;
44508;SDS011;30214;52.246;14.408;2022-11-15T14:32:50;28.05;;;18.95;;
44508;SDS011;30214;52.246;14.408;2022-11-15T14:35:20;30.33;;;20.02;;
44508;SDS011;30214;52.246;14.408;2022-11-15T14:37:48;28.70;;;19.83;;
44508;SDS011;30214;52.246;14.408;2022-11-15T14:40:17;35.08;;;20.35;;
44508;SDS011;30214;52.246;14.408;2022-11-15T14:42:47;27.98;;;19.23;;
44508;SDS011;30214;52.246;14.408;2022-11-15T14:45:16;32.10;;;20.67;;
44508;SDS011;30214;52.246;14.408;2022-11-15T14:47:47;30.48;;;19.52;;
44508;SDS011;30214;52.246;14.408;2022-11-15T14:50:15;27.83;;;18.55;;
44508;SDS011;30214;52.246;14.408;2022-11-15T14:52:45;27.73;;;18.23;;
44508;SDS011;30214;52.246;14.408;2022-11-15T14:55:16;30.05;;;20.85;;
44508;SDS011;30214;52.246;14.408;2022-11-15T14:57:48;31.70;;;22.85;;
44508;SDS011;30214;52.246;14.408;2022-11-15T15:00:15;29.83;;;22.92;;
44508;SDS011;30214;52.246;14.408;2022-11-15T15:02:45;31.02;;;22.75;;
44508;SDS011;30214;52.246;14.408;2022-11-15T15:05:16;32.88;;;21.63;;
44508;SDS011;30214;52.246;14.408;2022-11-15T15:07:45;29.50;;;21.45;;
44508;SDS011;30214;52.246;14.408;2022-11-15T15:10:14;36.22;;;23.88;;
44508;SDS011;30214;52.246;14.408;2022-11-15T15:12:42;36.65;;;24.23;;
44508;SDS011;30214;52.246;14.408;2022-11-15T15:15:12;33.33;;;23.23;;
44508;SDS011;30214;52.246;14.408;2022-11-15T15:17:42;34.38;;;24.20;;
44508;SDS011;30214;52.246;14.408;2022-11-15T15:20:11;31.42;;;22.73;;
44508;SDS011;30214;52.246;14.408;2022-11-15T15:22:43;29.35;;;20.95;;
44508;SDS011;30214;52.246;14.408;2022-11-15T15:25:19;33.10;;;21.65;;
44508;SDS011;30214;52.246;14.408;2022-11-15T15:28:16;28.33;;;20.37;;
44508;SDS011;30214;52.246;14.408;2022-11-15T15:30:43;29.55;;;20.23;;
44508;SDS011;30214;52.246;14.408;2022-11-15T15:33:10;26.42;;;19.58;;
44508;SDS011;30214;52.246;14.408;2022-11-15T15:35:39;27.33;;;18.88;;
44508;SDS011;30214;52.246;14.408;2022-11-15T15:38:08;31.80;;;20.80;;
44508;SDS011;30214;52.246;14.408;2022-11-15T15:40:37;31.00;;;21.55;;
44508;SDS011;30214;52.246;14.408;2022-11-15T15:43:05;28.83;;;20.20;;
44508;SDS011;30214;52.246;14.408;2022-11-15T15:45:34;31.05;;;20.55;;
44508;SDS011;30214;52.246;14.408;2022-11-15T15:48:04;30.10;;;20.42;;
44508;SDS011;30214;52.246;14.408;2022-11-15T15:50:33;31.17;;;22.25;;
44508;SDS011;30214;52.246;14.408;2022-11-15T15:53:04;34.65;;;22.00;;
44508;SDS011;30214;52.246;14.408;2022-11-15T15:55:33;33.08;;;22.55;;
44508;SDS011;30214;52.246;14.408;2022-11-15T15:58:00;32.45;;;21.88;;
44508;SDS011;30214;52.246;14.408;2022-11-15T16:00:28;34.40;;;22.27;;
44508;SDS011;30214;52.246;14.408;2022-11-15T16:02:58;35.38;;;24.40;;
44508;SDS011;30214;52.246;14.408;2022-11-15T16:05:27;30.90;;;22.33;;
44508;SDS011;30214;52.246;14.408;2022-11-15T16:07:55;33.05;;;20.17;;
44508;SDS011;30214;52.246;14.408;2022-11-15T16:10:28;32.47;;;21.95;;